sensor_id;sensor_type;location;lat;lon;timestamp;P1;durP1;ratioP1;P2;durP2;ratioP2
8297;SDS011;4187;42.778;23.242;2024-01-30T00:01:51;10.57;;;6.70;;
8297;SDS011;4187;42.778;23.242;2024-01-30T00:04:18;10.30;;;6.03;;
8297;SDS011;4187;42.778;23.242;2024-01-30T00:06:46;9.37;;;7.07;;
8297;SDS011;4187;42.778;23.242;2024-01-30T00:09:13;13.97;;;11.27;;
8297;SDS011;4187;42.778;23.242;2024-01-30T00:11:40;12.67;;;8.80;;
8297;SDS011;4187;42.778;23.242;2024-01-30T00:14:07;12.40;;;8.70;;
8297;SDS011;4187;42.778;23.242;2024-01-30T00:16:33;9.80;;;7.77;;
8297;SDS011;4187;42.778;23.242;2024-01-30T00:19:00;10.47;;;7.50;;
8297;SDS011;4187;42.778;23.242;2024-01-30T00:21:27;8.70;;;6.10;;
8297;SDS011;4187;42.778;23.242;2024-01-30T00:23:55;8.60;;;7.60;;
8297;SDS011;4187;42.778;23.242;2024-01-30T00:26:22;12.57;;;9.20;;
8297;SDS011;4187;42.778;23.242;2024-01-30T00:28:49;11.90;;;7.87;;
8297;SDS011;4187;42.778;23.242;2024-01-30T00:31:16;20.33;;;11.67;;
8297;SDS011;4187;42.778;23.242;2024-01-30T00:33:43;7.43;;;6.07;;
8297;SDS011;4187;42.778;23.242;2024-01-30T00:36:10;8.60;;;6.00;;
8297;SDS011;4187;42.778;23.242;2024-01-30T00:38:37;14.73;;;9.87;;
8297;SDS011;4187;42.778;23.242;2024-01-30T00:41:06;14.43;;;8.27;;
8297;SDS011;4187;42.778;23.242;2024-01-30T00:43:34;21.90;;;12.37;;
8297;SDS011;4187;42.778;23.242;2024-01-30T00:46:01;53.23;;;27.37;;
8297;SDS011;4187;42.778;23.242;2024-01-30T00:48:28;55.50;;;26.83;;
8297;SDS011;4187;42.778;23.242;2024-01-30T00:50:55;75.43;;;33.53;;
8297;SDS011;4187;42.778;23.242;2024-01-30T00:53:22;69.20;;;33.33;;
8297;SDS011;4187;42.778;23.242;2024-01-30T00:55:48;101.93;;;40.03;;
8297;SDS011;4187;42.778;23.242;2024-01-30T00:58:16;27.20;;;13.77;;
8297;SDS011;4187;42.778;23.242;2024-01-30T01:00:45;24.00;;;14.03;;
8297;SDS011;4187;42.778;23.242;2024-01-30T01:03:12;8.63;;;6.23;;
8297;SDS011;4187;42.778;23.242;2024-01-30T01:05:39;12.67;;;8.87;;
8297;SDS011;4187;42.778;23.242;2024-01-30T01:08:06;16.47;;;10.60;;
8297;SDS011;4187;42.778;23.242;2024-01-30T01:10:34;15.07;;;9.43;;
8297;SDS011;4187;42.778;23.242;2024-01-30T01:13:00;14.00;;;9.30;;
8297;SDS011;4187;42.778;23.242;2024-01-30T01:15:29;26.70;;;16.30;;
8297;SDS011;4187;42.778;23.242;2024-01-30T01:17:55;21.77;;;13.60;;
8297;SDS011;4187;42.778;23.242;2024-01-30T01:20:22;16.33;;;10.80;;
8297;SDS011;4187;42.778;23.242;2024-01-30T01:22:49;17.67;;;10.60;;
8297;SDS011;4187;42.778;23.242;2024-01-30T01:25:17;17.90;;;10.73;;
8297;SDS011;4187;42.778;23.242;2024-01-30T01:27:44;16.83;;;10.00;;
8297;SDS011;4187;42.778;23.242;2024-01-30T01:30:16;13.53;;;7.90;;
8297;SDS011;4187;42.778;23.242;2024-01-30T01:32:48;10.63;;;7.07;;
8297;SDS011;4187;42.778;23.242;2024-01-30T01:35:20;11.30;;;7.07;;
8297;SDS011;4187;42.778;23.242;2024-01-30T01:37:47;10.57;;;7.03;;
8297;SDS011;4187;42.778;23.242;2024-01-30T01:40:19;12.30;;;8.13;;
8297;SDS011;4187;42.778;23.242;2024-01-30T01:42:47;23.97;;;13.73;;
8297;SDS011;4187;42.778;23.242;2024-01-30T01:45:13;29.17;;;16.60;;
8297;SDS011;4187;42.778;23.242;2024-01-30T01:47:40;22.47;;;13.83;;
8297;SDS011;4187;42.778;23.242;2024-01-30T01:50:09;23.13;;;13.23;;
8297;SDS011;4187;42.778;23.242;2024-01-30T01:52:36;20.70;;;12.47;;
8297;SDS011;4187;42.778;23.242;2024-01-30T01:55:05;12.93;;;8.87;;
8297;SDS011;4187;42.778;23.242;2024-01-30T01:57:33;21.80;;;13.30;;
8297;SDS011;4187;42.778;23.242;2024-01-30T02:00:00;27.67;;;14.67;;
8297;SDS011;4187;42.778;23.242;2024-01-30T02:02:28;18.87;;;13.27;;
8297;SDS011;4187;42.778;23.242;2024-01-30T02:04:57;21.87;;;10.87;;
8297;SDS011;4187;42.778;23.242;2024-01-30T02:07:25;13.27;;;9.03;;
8297;SDS011;4187;42.778;23.242;2024-01-30T02:09:54;10.83;;;7.70;;
8297;SDS011;4187;42.778;23.242;2024-01-30T02:12:21;8.40;;;6.50;;
8297;SDS011;4187;42.778;23.242;2024-01-30T02:14:48;9.33;;;6.57;;
8297;SDS011;4187;42.778;23.242;2024-01-30T02:17:15;9.63;;;7.23;;
8297;SDS011;4187;42.778;23.242;2024-01-30T02:19:42;11.27;;;8.07;;
8297;SDS011;4187;42.778;23.242;2024-01-30T02:22:10;9.73;;;7.00;;
8297;SDS011;4187;42.778;23.242;2024-01-30T02:24:37;9.60;;;6.40;;
8297;SDS011;4187;42.778;23.242;2024-01-30T02:27:04;11.00;;;6.93;;
8297;SDS011;4187;42.778;23.242;2024-01-30T02:29:31;8.93;;;6.37;;
8297;SDS011;4187;42.778;23.242;2024-01-30T02:31:57;11.37;;;7.17;;
8297;SDS011;4187;42.778;23.242;2024-01-30T02:34:24;11.57;;;6.83;;
8297;SDS011;4187;42.778;23.242;2024-01-30T02:36:51;10.03;;;6.90;;
8297;SDS011;4187;42.778;23.242;2024-01-30T02:39:19;9.77;;;6.17;;
8297;SDS011;4187;42.778;23.242;2024-01-30T02:41:46;8.63;;;6.20;;
8297;SDS011;4187;42.778;23.242;2024-01-30T02:44:12;12.27;;;7.07;;
8297;SDS011;4187;42.778;23.242;2024-01-30T02:46:39;14.47;;;8.60;;
8297;SDS011;4187;42.778;23.242;2024-01-30T02:49:06;16.43;;;9.77;;
8297;SDS011;4187;42.778;23.242;2024-01-30T02:51:33;20.17;;;12.20;;
8297;SDS011;4187;42.778;23.242;2024-01-30T02:53:59;33.77;;;16.07;;
8297;SDS011;4187;42.778;23.242;2024-01-30T02:56:28;10.77;;;7.40;;
8297;SDS011;4187;42.778;23.242;2024-01-30T02:58:54;9.37;;;7.10;;
8297;SDS011;4187;42.778;23.242;2024-01-30T03:01:21;6.47;;;4.57;;
8297;SDS011;4187;42.778;23.242;2024-01-30T03:03:49;4.90;;;4.10;;
8297;SDS011;4187;42.778;23.242;2024-01-30T03:06:16;6.33;;;4.00;;
8297;SDS011;4187;42.778;23.242;2024-01-30T03:08:45;5.83;;;3.93;;
8297;SDS011;4187;42.778;23.242;2024-01-30T03:11:12;4.53;;;3.57;;
8297;SDS011;4187;42.778;23.242;2024-01-30T03:13:40;5.70;;;3.77;;
8297;SDS011;4187;42.778;23.242;2024-01-30T03:16:08;5.43;;;4.43;;
8297;SDS011;4187;42.778;23.242;2024-01-30T03:18:34;6.30;;;3.67;;
8297;SDS011;4187;42.778;23.242;2024-01-30T03:21:01;4.20;;;2.93;;
8297;SDS011;4187;42.778;23.242;2024-01-30T03:23:28;5.10;;;3.43;;
8297;SDS011;4187;42.778;23.242;2024-01-30T03:25:57;7.43;;;4.83;;
8297;SDS011;4187;42.778;23.242;2024-01-30T03:28:24;6.33;;;4.97;;
8297;SDS011;4187;42.778;23.242;2024-01-30T03:30:58;7.27;;;5.10;;
8297;SDS011;4187;42.778;23.242;2024-01-30T03:33:25;3.90;;;3.47;;
8297;SDS011;4187;42.778;23.242;2024-01-30T03:35:53;3.80;;;3.13;;
8297;SDS011;4187;42.778;23.242;2024-01-30T03:38:20;4.70;;;3.47;;
8297;SDS011;4187;42.778;23.242;2024-01-30T03:40:46;6.73;;;4.20;;
8297;SDS011;4187;42.778;23.242;2024-01-30T03:43:13;7.40;;;5.53;;
8297;SDS011;4187;42.778;23.242;2024-01-30T03:45:40;9.07;;;5.83;;
8297;SDS011;4187;42.778;23.242;2024-01-30T03:48:08;5.43;;;4.37;;
8297;SDS011;4187;42.778;23.242;2024-01-30T03:50:35;7.47;;;4.30;;
8297;SDS011;4187;42.778;23.242;2024-01-30T03:53:02;5.30;;;4.70;;
8297;SDS011;4187;42.778;23.242;2024-01-30T03:55:29;7.50;;;4.83;;
8297;SDS011;4187;42.778;23.242;2024-01-30T03:57:55;9.00;;;5.90;;
8297;SDS011;4187;42.778;23.242;2024-01-30T04:00:22;10.93;;;7.13;;
8297;SDS011;4187;42.778;23.242;2024-01-30T04:02:49;16.77;;;8.70;;
8297;SDS011;4187;42.778;23.242;2024-01-30T04:05:17;21.70;;;12.40;;
8297;SDS011;4187;42.778;23.242;2024-01-30T04:07:44;10.00;;;6.73;;
8297;SDS011;4187;42.778;23.242;2024-01-30T04:10:11;7.17;;;4.97;;
8297;SDS011;4187;42.778;23.242;2024-01-30T04:12:37;11.20;;;6.33;;
8297;SDS011;4187;42.778;23.242;2024-01-30T04:15:04;7.07;;;4.50;;
8297;SDS011;4187;42.778;23.242;2024-01-30T04:17:31;8.20;;;4.90;;
8297;SDS011;4187;42.778;23.242;2024-01-30T04:19:58;7.60;;;5.37;;
8297;SDS011;4187;42.778;23.242;2024-01-30T04:22:26;6.53;;;4.57;;
8297;SDS011;4187;42.778;23.242;2024-01-30T04:24:53;5.17;;;4.00;;
8297;SDS011;4187;42.778;23.242;2024-01-30T04:27:20;5.53;;;3.80;;
8297;SDS011;4187;42.778;23.242;2024-01-30T04:29:46;6.07;;;4.27;;
8297;SDS011;4187;42.778;23.242;2024-01-30T04:32:13;4.83;;;3.63;;
8297;SDS011;4187;42.778;23.242;2024-01-30T04:34:40;4.40;;;3.30;;
8297;SDS011;4187;42.778;23.242;2024-01-30T04:37:08;33.87;;;18.73;;
8297;SDS011;4187;42.778;23.242;2024-01-30T04:39:36;14.40;;;9.73;;
8297;SDS011;4187;42.778;23.242;2024-01-30T04:42:03;10.73;;;4.80;;
8297;SDS011;4187;42.778;23.242;2024-01-30T04:44:30;17.27;;;10.27;;
8297;SDS011;4187;42.778;23.242;2024-01-30T04:46:57;23.80;;;12.07;;
8297;SDS011;4187;42.778;23.242;2024-01-30T04:49:26;30.30;;;16.87;;
8297;SDS011;4187;42.778;23.242;2024-01-30T04:51:54;19.43;;;11.37;;
8297;SDS011;4187;42.778;23.242;2024-01-30T04:54:21;16.43;;;9.83;;
8297;SDS011;4187;42.778;23.242;2024-01-30T04:56:49;14.33;;;8.80;;
8297;SDS011;4187;42.778;23.242;2024-01-30T04:59:15;10.60;;;7.60;;
8297;SDS011;4187;42.778;23.242;2024-01-30T05:01:42;10.27;;;7.33;;
8297;SDS011;4187;42.778;23.242;2024-01-30T05:04:09;7.07;;;6.00;;
8297;SDS011;4187;42.778;23.242;2024-01-30T05:06:36;9.10;;;6.73;;
8297;SDS011;4187;42.778;23.242;2024-01-30T05:09:03;9.60;;;7.00;;
8297;SDS011;4187;42.778;23.242;2024-01-30T05:11:30;7.87;;;6.63;;
8297;SDS011;4187;42.778;23.242;2024-01-30T05:13:58;9.77;;;7.53;;
8297;SDS011;4187;42.778;23.242;2024-01-30T05:16:25;12.30;;;8.00;;
8297;SDS011;4187;42.778;23.242;2024-01-30T05:18:51;6.77;;;6.07;;
8297;SDS011;4187;42.778;23.242;2024-01-30T05:24:27;11.77;;;6.80;;
8297;SDS011;4187;42.778;23.242;2024-01-30T05:26:54;13.37;;;8.00;;
8297;SDS011;4187;42.778;23.242;2024-01-30T05:29:22;11.13;;;8.10;;
8297;SDS011;4187;42.778;23.242;2024-01-30T05:31:49;11.67;;;7.47;;
8297;SDS011;4187;42.778;23.242;2024-01-30T05:34:16;32.13;;;14.80;;
8297;SDS011;4187;42.778;23.242;2024-01-30T05:36:43;39.80;;;19.20;;
8297;SDS011;4187;42.778;23.242;2024-01-30T05:39:10;48.43;;;19.63;;
8297;SDS011;4187;42.778;23.242;2024-01-30T05:41:37;34.77;;;17.57;;
8297;SDS011;4187;42.778;23.242;2024-01-30T05:44:03;33.20;;;16.07;;
8297;SDS011;4187;42.778;23.242;2024-01-30T05:46:33;32.40;;;16.73;;
8297;SDS011;4187;42.778;23.242;2024-01-30T05:49:00;27.90;;;15.23;;
8297;SDS011;4187;42.778;23.242;2024-01-30T05:51:26;18.10;;;12.73;;
8297;SDS011;4187;42.778;23.242;2024-01-30T05:53:54;15.43;;;10.23;;
8297;SDS011;4187;42.778;23.242;2024-01-30T05:56:21;10.30;;;7.50;;
8297;SDS011;4187;42.778;23.242;2024-01-30T05:58:48;12.63;;;8.53;;
8297;SDS011;4187;42.778;23.242;2024-01-30T06:01:15;18.53;;;12.50;;
8297;SDS011;4187;42.778;23.242;2024-01-30T06:03:43;20.43;;;13.33;;
8297;SDS011;4187;42.778;23.242;2024-01-30T06:06:10;23.50;;;14.47;;
8297;SDS011;4187;42.778;23.242;2024-01-30T06:08:37;16.60;;;12.27;;
8297;SDS011;4187;42.778;23.242;2024-01-30T06:11:03;14.27;;;10.37;;
8297;SDS011;4187;42.778;23.242;2024-01-30T06:13:30;14.20;;;12.70;;
8297;SDS011;4187;42.778;23.242;2024-01-30T06:15:58;30.97;;;27.43;;
8297;SDS011;4187;42.778;23.242;2024-01-30T06:18:24;20.60;;;18.43;;
8297;SDS011;4187;42.778;23.242;2024-01-30T06:20:53;17.23;;;10.10;;
8297;SDS011;4187;42.778;23.242;2024-01-30T06:23:20;7.53;;;5.93;;
8297;SDS011;4187;42.778;23.242;2024-01-30T06:25:47;7.20;;;5.60;;
8297;SDS011;4187;42.778;23.242;2024-01-30T06:28:13;7.97;;;6.07;;
8297;SDS011;4187;42.778;23.242;2024-01-30T06:33:27;9.37;;;6.50;;
8297;SDS011;4187;42.778;23.242;2024-01-30T06:35:55;9.10;;;6.10;;
8297;SDS011;4187;42.778;23.242;2024-01-30T06:38:22;8.50;;;6.07;;
8297;SDS011;4187;42.778;23.242;2024-01-30T06:40:49;6.50;;;5.03;;
8297;SDS011;4187;42.778;23.242;2024-01-30T06:43:16;7.83;;;5.43;;
8297;SDS011;4187;42.778;23.242;2024-01-30T06:45:42;7.27;;;5.40;;
8297;SDS011;4187;42.778;23.242;2024-01-30T06:48:09;8.97;;;6.07;;
8297;SDS011;4187;42.778;23.242;2024-01-30T06:50:36;10.53;;;6.47;;
8297;SDS011;4187;42.778;23.242;2024-01-30T06:53:04;13.67;;;7.13;;
8297;SDS011;4187;42.778;23.242;2024-01-30T06:55:31;15.27;;;8.50;;
8297;SDS011;4187;42.778;23.242;2024-01-30T06:57:58;11.83;;;6.47;;
8297;SDS011;4187;42.778;23.242;2024-01-30T07:00:24;9.77;;;5.43;;
8297;SDS011;4187;42.778;23.242;2024-01-30T07:02:51;10.20;;;6.10;;
8297;SDS011;4187;42.778;23.242;2024-01-30T07:05:18;9.83;;;6.17;;
8297;SDS011;4187;42.778;23.242;2024-01-30T07:07:46;8.67;;;5.43;;
8297;SDS011;4187;42.778;23.242;2024-01-30T07:10:15;6.93;;;5.17;;
8297;SDS011;4187;42.778;23.242;2024-01-30T07:12:42;12.47;;;6.73;;
8297;SDS011;4187;42.778;23.242;2024-01-30T07:15:08;7.37;;;5.73;;
8297;SDS011;4187;42.778;23.242;2024-01-30T07:17:36;6.03;;;5.00;;
8297;SDS011;4187;42.778;23.242;2024-01-30T07:20:03;5.80;;;4.33;;
8297;SDS011;4187;42.778;23.242;2024-01-30T07:22:31;9.60;;;7.10;;
8297;SDS011;4187;42.778;23.242;2024-01-30T07:24:58;9.83;;;5.73;;
8297;SDS011;4187;42.778;23.242;2024-01-30T07:27:26;11.47;;;7.23;;
8297;SDS011;4187;42.778;23.242;2024-01-30T07:29:53;8.63;;;5.80;;
8297;SDS011;4187;42.778;23.242;2024-01-30T07:32:20;6.80;;;4.80;;
8297;SDS011;4187;42.778;23.242;2024-01-30T07:34:46;9.80;;;6.80;;
8297;SDS011;4187;42.778;23.242;2024-01-30T07:37:13;9.17;;;5.80;;
8297;SDS011;4187;42.778;23.242;2024-01-30T07:39:41;3.60;;;3.13;;
8297;SDS011;4187;42.778;23.242;2024-01-30T07:42:08;6.50;;;4.40;;
8297;SDS011;4187;42.778;23.242;2024-01-30T07:44:36;6.50;;;4.73;;
8297;SDS011;4187;42.778;23.242;2024-01-30T07:47:03;7.90;;;5.77;;
8297;SDS011;4187;42.778;23.242;2024-01-30T07:49:29;8.57;;;6.17;;
8297;SDS011;4187;42.778;23.242;2024-01-30T07:52:00;6.93;;;5.50;;
8297;SDS011;4187;42.778;23.242;2024-01-30T07:54:27;6.53;;;5.33;;
8297;SDS011;4187;42.778;23.242;2024-01-30T07:56:58;6.63;;;5.07;;
8297;SDS011;4187;42.778;23.242;2024-01-30T07:59:25;4.67;;;4.10;;
8297;SDS011;4187;42.778;23.242;2024-01-30T08:01:53;4.70;;;3.80;;
8297;SDS011;4187;42.778;23.242;2024-01-30T08:04:20;4.20;;;3.80;;
8297;SDS011;4187;42.778;23.242;2024-01-30T08:06:46;11.07;;;6.43;;
8297;SDS011;4187;42.778;23.242;2024-01-30T08:09:13;4.37;;;3.83;;
8297;SDS011;4187;42.778;23.242;2024-01-30T08:11:40;3.60;;;3.30;;
8297;SDS011;4187;42.778;23.242;2024-01-30T08:14:07;5.33;;;4.13;;
8297;SDS011;4187;42.778;23.242;2024-01-30T08:16:34;8.73;;;4.53;;
8297;SDS011;4187;42.778;23.242;2024-01-30T08:19:02;5.37;;;3.90;;
8297;SDS011;4187;42.778;23.242;2024-01-30T08:21:30;4.20;;;3.60;;
8297;SDS011;4187;42.778;23.242;2024-01-30T08:24:01;3.83;;;3.40;;
8297;SDS011;4187;42.778;23.242;2024-01-30T08:26:29;15.67;;;7.00;;
8297;SDS011;4187;42.778;23.242;2024-01-30T08:28:56;7.83;;;5.47;;
8297;SDS011;4187;42.778;23.242;2024-01-30T08:31:22;6.00;;;4.60;;
8297;SDS011;4187;42.778;23.242;2024-01-30T08:33:49;11.83;;;6.53;;
8297;SDS011;4187;42.778;23.242;2024-01-30T08:36:17;11.67;;;7.47;;
8297;SDS011;4187;42.778;23.242;2024-01-30T08:38:44;8.00;;;4.87;;
8297;SDS011;4187;42.778;23.242;2024-01-30T08:41:11;10.13;;;5.93;;
8297;SDS011;4187;42.778;23.242;2024-01-30T08:43:38;6.17;;;4.70;;
8297;SDS011;4187;42.778;23.242;2024-01-30T08:46:04;5.23;;;4.50;;
8297;SDS011;4187;42.778;23.242;2024-01-30T08:48:31;4.83;;;3.67;;
8297;SDS011;4187;42.778;23.242;2024-01-30T08:50:58;5.23;;;4.00;;
8297;SDS011;4187;42.778;23.242;2024-01-30T08:53:26;5.10;;;3.90;;
8297;SDS011;4187;42.778;23.242;2024-01-30T08:55:53;6.57;;;3.77;;
8297;SDS011;4187;42.778;23.242;2024-01-30T08:58:19;7.53;;;4.07;;
8297;SDS011;4187;42.778;23.242;2024-01-30T09:00:46;5.70;;;3.63;;
8297;SDS011;4187;42.778;23.242;2024-01-30T09:03:13;5.10;;;3.70;;
8297;SDS011;4187;42.778;23.242;2024-01-30T09:05:40;7.47;;;4.30;;
8297;SDS011;4187;42.778;23.242;2024-01-30T09:08:06;5.88;;;4.32;;
8297;SDS011;4187;42.778;23.242;2024-01-30T09:10:35;4.57;;;4.07;;
8297;SDS011;4187;42.778;23.242;2024-01-30T09:13:02;16.25;;;6.97;;
8297;SDS011;4187;42.778;23.242;2024-01-30T09:15:29;11.47;;;5.63;;
8297;SDS011;4187;42.778;23.242;2024-01-30T09:17:56;22.45;;;9.50;;
8297;SDS011;4187;42.778;23.242;2024-01-30T09:20:23;24.38;;;8.88;;
8297;SDS011;4187;42.778;23.242;2024-01-30T09:22:49;15.30;;;7.78;;
8297;SDS011;4187;42.778;23.242;2024-01-30T09:25:16;9.10;;;4.80;;
8297;SDS011;4187;42.778;23.242;2024-01-30T09:27:45;9.30;;;4.50;;
8297;SDS011;4187;42.778;23.242;2024-01-30T09:30:12;3.97;;;3.20;;
8297;SDS011;4187;42.778;23.242;2024-01-30T09:32:40;5.33;;;3.67;;
8297;SDS011;4187;42.778;23.242;2024-01-30T09:35:07;11.85;;;5.80;;
8297;SDS011;4187;42.778;23.242;2024-01-30T09:37:34;5.30;;;4.00;;
8297;SDS011;4187;42.778;23.242;2024-01-30T09:40:01;14.27;;;6.43;;
8297;SDS011;4187;42.778;23.242;2024-01-30T09:42:32;14.00;;;6.50;;
8297;SDS011;4187;42.778;23.242;2024-01-30T09:45:02;3.78;;;3.25;;
8297;SDS011;4187;42.778;23.242;2024-01-30T09:47:30;7.28;;;3.10;;
8297;SDS011;4187;42.778;23.242;2024-01-30T09:49:58;4.55;;;2.88;;
8297;SDS011;4187;42.778;23.242;2024-01-30T09:52:25;3.78;;;2.78;;
8297;SDS011;4187;42.778;23.242;2024-01-30T09:54:51;6.50;;;3.67;;
8297;SDS011;4187;42.778;23.242;2024-01-30T09:57:19;8.60;;;4.55;;
8297;SDS011;4187;42.778;23.242;2024-01-30T09:59:47;5.90;;;3.20;;
8297;SDS011;4187;42.778;23.242;2024-01-30T10:02:15;3.50;;;2.90;;
8297;SDS011;4187;42.778;23.242;2024-01-30T10:04:43;2.97;;;2.38;;
8297;SDS011;4187;42.778;23.242;2024-01-30T10:07:10;27.33;;;17.85;;
8297;SDS011;4187;42.778;23.242;2024-01-30T10:09:37;7.90;;;5.90;;
8297;SDS011;4187;42.778;23.242;2024-01-30T10:12:05;7.18;;;3.22;;
8297;SDS011;4187;42.778;23.242;2024-01-30T10:14:32;4.63;;;3.43;;
8297;SDS011;4187;42.778;23.242;2024-01-30T10:17:01;5.22;;;3.78;;
8297;SDS011;4187;42.778;23.242;2024-01-30T10:19:29;3.80;;;2.80;;
8297;SDS011;4187;42.778;23.242;2024-01-30T10:21:56;6.68;;;4.03;;
8297;SDS011;4187;42.778;23.242;2024-01-30T10:24:23;4.90;;;3.33;;
8297;SDS011;4187;42.778;23.242;2024-01-30T10:26:51;4.18;;;3.40;;
8297;SDS011;4187;42.778;23.242;2024-01-30T10:29:18;7.00;;;5.38;;
8297;SDS011;4187;42.778;23.242;2024-01-30T10:31:44;4.18;;;3.08;;
8297;SDS011;4187;42.778;23.242;2024-01-30T10:34:12;6.15;;;3.25;;
8297;SDS011;4187;42.778;23.242;2024-01-30T10:36:40;4.82;;;2.97;;
8297;SDS011;4187;42.778;23.242;2024-01-30T10:39:09;4.30;;;3.15;;
8297;SDS011;4187;42.778;23.242;2024-01-30T10:41:37;2.97;;;2.67;;
8297;SDS011;4187;42.778;23.242;2024-01-30T10:44:09;3.85;;;2.72;;
8297;SDS011;4187;42.778;23.242;2024-01-30T10:46:37;3.55;;;2.80;;
8297;SDS011;4187;42.778;23.242;2024-01-30T10:49:05;5.28;;;3.38;;
8297;SDS011;4187;42.778;23.242;2024-01-30T10:51:33;5.35;;;3.00;;
8297;SDS011;4187;42.778;23.242;2024-01-30T10:54:02;6.60;;;3.45;;
8297;SDS011;4187;42.778;23.242;2024-01-30T10:56:31;3.20;;;2.88;;
8297;SDS011;4187;42.778;23.242;2024-01-30T10:58:59;3.80;;;3.22;;
8297;SDS011;4187;42.778;23.242;2024-01-30T11:01:26;4.25;;;3.40;;
8297;SDS011;4187;42.778;23.242;2024-01-30T11:03:54;3.72;;;2.30;;
8297;SDS011;4187;42.778;23.242;2024-01-30T11:06:22;3.28;;;2.90;;
8297;SDS011;4187;42.778;23.242;2024-01-30T11:09:00;3.78;;;2.75;;
8297;SDS011;4187;42.778;23.242;2024-01-30T11:11:31;2.90;;;2.40;;
8297;SDS011;4187;42.778;23.242;2024-01-30T11:14:00;4.05;;;2.55;;
8297;SDS011;4187;42.778;23.242;2024-01-30T11:16:30;7.07;;;4.90;;
8297;SDS011;4187;42.778;23.242;2024-01-30T11:19:00;8.20;;;5.25;;
8297;SDS011;4187;42.778;23.242;2024-01-30T11:21:27;4.60;;;3.00;;
8297;SDS011;4187;42.778;23.242;2024-01-30T11:23:54;3.10;;;2.80;;
8297;SDS011;4187;42.778;23.242;2024-01-30T11:26:23;12.55;;;8.90;;
8297;SDS011;4187;42.778;23.242;2024-01-30T11:28:55;3.78;;;2.80;;
8297;SDS011;4187;42.778;23.242;2024-01-30T11:31:23;9.90;;;7.35;;
8297;SDS011;4187;42.778;23.242;2024-01-30T11:33:52;15.80;;;9.85;;
8297;SDS011;4187;42.778;23.242;2024-01-30T11:36:20;6.57;;;5.05;;
8297;SDS011;4187;42.778;23.242;2024-01-30T11:38:51;15.85;;;11.20;;
8297;SDS011;4187;42.778;23.242;2024-01-30T11:41:18;8.25;;;6.60;;
8297;SDS011;4187;42.778;23.242;2024-01-30T11:43:50;9.32;;;6.90;;
8297;SDS011;4187;42.778;23.242;2024-01-30T11:46:19;6.22;;;4.25;;
8297;SDS011;4187;42.778;23.242;2024-01-30T11:48:46;7.50;;;5.75;;
8297;SDS011;4187;42.778;23.242;2024-01-30T11:51:13;4.30;;;3.53;;
8297;SDS011;4187;42.778;23.242;2024-01-30T11:53:41;4.43;;;3.55;;
8297;SDS011;4187;42.778;23.242;2024-01-30T11:56:08;5.78;;;3.65;;
8297;SDS011;4187;42.778;23.242;2024-01-30T11:58:35;7.25;;;5.18;;
8297;SDS011;4187;42.778;23.242;2024-01-30T12:01:01;5.18;;;3.60;;
8297;SDS011;4187;42.778;23.242;2024-01-30T12:03:29;3.85;;;2.78;;
8297;SDS011;4187;42.778;23.242;2024-01-30T12:05:57;5.15;;;3.83;;
8297;SDS011;4187;42.778;23.242;2024-01-30T12:08:24;4.50;;;3.13;;
8297;SDS011;4187;42.778;23.242;2024-01-30T12:10:56;5.53;;;3.22;;
8297;SDS011;4187;42.778;23.242;2024-01-30T12:13:24;4.47;;;3.03;;
8297;SDS011;4187;42.778;23.242;2024-01-30T12:15:51;3.75;;;2.80;;
8297;SDS011;4187;42.778;23.242;2024-01-30T12:18:18;3.55;;;2.63;;
8297;SDS011;4187;42.778;23.242;2024-01-30T12:20:51;5.40;;;3.70;;
8297;SDS011;4187;42.778;23.242;2024-01-30T12:23:23;7.22;;;4.13;;
8297;SDS011;4187;42.778;23.242;2024-01-30T12:25:50;7.60;;;5.18;;
8297;SDS011;4187;42.778;23.242;2024-01-30T12:28:21;6.78;;;4.78;;
8297;SDS011;4187;42.778;23.242;2024-01-30T12:30:47;3.22;;;2.80;;
8297;SDS011;4187;42.778;23.242;2024-01-30T12:33:16;3.88;;;2.90;;
8297;SDS011;4187;42.778;23.242;2024-01-30T12:35:45;5.20;;;3.15;;
8297;SDS011;4187;42.778;23.242;2024-01-30T12:38:14;5.07;;;3.83;;
8297;SDS011;4187;42.778;23.242;2024-01-30T12:40:41;5.85;;;3.03;;
8297;SDS011;4187;42.778;23.242;2024-01-30T12:43:08;4.65;;;2.97;;
8297;SDS011;4187;42.778;23.242;2024-01-30T12:45:35;5.35;;;3.63;;
8297;SDS011;4187;42.778;23.242;2024-01-30T12:48:02;3.10;;;2.80;;
8297;SDS011;4187;42.778;23.242;2024-01-30T12:50:29;5.05;;;3.67;;
8297;SDS011;4187;42.778;23.242;2024-01-30T12:52:56;3.08;;;2.38;;
8297;SDS011;4187;42.778;23.242;2024-01-30T12:55:25;3.28;;;2.83;;
8297;SDS011;4187;42.778;23.242;2024-01-30T12:57:53;7.50;;;3.33;;
8297;SDS011;4187;42.778;23.242;2024-01-30T13:00:20;3.03;;;2.60;;
8297;SDS011;4187;42.778;23.242;2024-01-30T13:02:47;3.28;;;2.60;;
8297;SDS011;4187;42.778;23.242;2024-01-30T13:05:17;4.57;;;3.73;;
8297;SDS011;4187;42.778;23.242;2024-01-30T13:07:44;5.18;;;3.75;;
8297;SDS011;4187;42.778;23.242;2024-01-30T13:10:11;4.67;;;3.80;;
8297;SDS011;4187;42.778;23.242;2024-01-30T13:12:40;5.83;;;4.07;;
8297;SDS011;4187;42.778;23.242;2024-01-30T13:15:07;7.18;;;4.97;;
8297;SDS011;4187;42.778;23.242;2024-01-30T13:17:36;6.13;;;4.03;;
8297;SDS011;4187;42.778;23.242;2024-01-30T13:20:03;5.40;;;3.70;;
8297;SDS011;4187;42.778;23.242;2024-01-30T13:22:33;6.00;;;3.73;;
8297;SDS011;4187;42.778;23.242;2024-01-30T13:25:00;4.97;;;3.80;;
8297;SDS011;4187;42.778;23.242;2024-01-30T13:27:27;6.57;;;4.53;;
8297;SDS011;4187;42.778;23.242;2024-01-30T13:29:55;8.07;;;5.73;;
8297;SDS011;4187;42.778;23.242;2024-01-30T13:32:22;7.50;;;6.32;;
8297;SDS011;4187;42.778;23.242;2024-01-30T13:34:49;6.50;;;4.78;;
8297;SDS011;4187;42.778;23.242;2024-01-30T13:37:15;4.30;;;3.50;;
8297;SDS011;4187;42.778;23.242;2024-01-30T13:39:43;5.33;;;4.83;;
8297;SDS011;4187;42.778;23.242;2024-01-30T13:42:10;6.22;;;4.55;;
8297;SDS011;4187;42.778;23.242;2024-01-30T13:44:36;6.00;;;5.40;;
8297;SDS011;4187;42.778;23.242;2024-01-30T13:47:05;5.47;;;3.63;;
8297;SDS011;4187;42.778;23.242;2024-01-30T13:49:32;5.40;;;3.90;;
8297;SDS011;4187;42.778;23.242;2024-01-30T13:51:58;4.60;;;3.15;;
8297;SDS011;4187;42.778;23.242;2024-01-30T13:54:25;4.07;;;3.47;;
8297;SDS011;4187;42.778;23.242;2024-01-30T13:56:52;4.10;;;3.67;;
8297;SDS011;4187;42.778;23.242;2024-01-30T13:59:19;4.17;;;3.73;;
8297;SDS011;4187;42.778;23.242;2024-01-30T14:01:49;5.28;;;3.80;;
8297;SDS011;4187;42.778;23.242;2024-01-30T14:04:18;5.80;;;4.00;;
8297;SDS011;4187;42.778;23.242;2024-01-30T14:06:44;5.03;;;4.05;;
8297;SDS011;4187;42.778;23.242;2024-01-30T14:09:12;5.50;;;4.40;;
8297;SDS011;4187;42.778;23.242;2024-01-30T14:11:40;6.70;;;6.00;;
8297;SDS011;4187;42.778;23.242;2024-01-30T14:14:08;5.50;;;4.70;;
8297;SDS011;4187;42.778;23.242;2024-01-30T14:16:35;4.45;;;4.03;;
8297;SDS011;4187;42.778;23.242;2024-01-30T14:19:03;8.20;;;5.88;;
8297;SDS011;4187;42.778;23.242;2024-01-30T14:21:32;8.55;;;6.10;;
8297;SDS011;4187;42.778;23.242;2024-01-30T14:23:59;6.28;;;5.18;;
8297;SDS011;4187;42.778;23.242;2024-01-30T14:26:26;8.70;;;7.05;;
8297;SDS011;4187;42.778;23.242;2024-01-30T14:28:53;11.73;;;9.93;;
8297;SDS011;4187;42.778;23.242;2024-01-30T14:31:20;9.20;;;7.28;;
8297;SDS011;4187;42.778;23.242;2024-01-30T14:33:49;8.82;;;6.22;;
8297;SDS011;4187;42.778;23.242;2024-01-30T14:36:17;5.43;;;4.93;;
8297;SDS011;4187;42.778;23.242;2024-01-30T14:38:47;6.40;;;4.45;;
8297;SDS011;4187;42.778;23.242;2024-01-30T14:41:14;4.50;;;3.95;;
8297;SDS011;4187;42.778;23.242;2024-01-30T14:43:42;5.28;;;4.45;;
8297;SDS011;4187;42.778;23.242;2024-01-30T14:46:08;8.60;;;5.85;;
8297;SDS011;4187;42.778;23.242;2024-01-30T14:48:36;10.43;;;6.63;;
8297;SDS011;4187;42.778;23.242;2024-01-30T14:51:04;11.03;;;6.67;;
8297;SDS011;4187;42.778;23.242;2024-01-30T14:53:32;7.80;;;6.33;;
8297;SDS011;4187;42.778;23.242;2024-01-30T14:56:01;10.93;;;6.43;;
8297;SDS011;4187;42.778;23.242;2024-01-30T14:58:29;11.10;;;6.43;;
8297;SDS011;4187;42.778;23.242;2024-01-30T15:00:57;8.03;;;5.87;;
8297;SDS011;4187;42.778;23.242;2024-01-30T15:03:24;7.87;;;5.53;;